createdAt,value
2022-12-28T00:02:59.673Z,100487.73
2022-12-28T00:08:02.684Z,100480.21
2022-12-28T00:13:05.409Z,100484.21
2022-12-28T00:18:08.057Z,100488.38
2022-12-28T00:23:10.797Z,100488.77
2022-12-28T00:28:13.435Z,100489.83
2022-12-28T00:33:16.100Z,100483.64
2022-12-28T00:38:18.834Z,100486.05
2022-12-28T00:43:21.476Z,100490.36
2022-12-28T00:48:24.296Z,100489.00
2022-12-28T00:53:26.981Z,100484.86
2022-12-28T00:58:29.651Z,100489.36
2022-12-28T01:03:32.511Z,100486.96
2022-12-28T01:08:37.444Z,100492.31
2022-12-28T01:13:40.289Z,100488.70
2022-12-28T01:18:43.744Z,100484.08
2022-12-28T01:23:48.039Z,100477.73
2022-12-28T01:28:50.757Z,100476.53
2022-12-28T01:33:54.029Z,100476.88
2022-12-28T01:38:59.837Z,100476.17
2022-12-28T01:44:02.483Z,100477.88
2022-12-28T01:49:30.202Z,100472.36
2022-12-28T01:54:46.287Z,100466.48
2022-12-28T01:59:59.568Z,100468.52
2022-12-28T02:05:02.663Z,100461.42
2022-12-28T02:10:42.762Z,100455.04
2022-12-28T02:15:29.085Z,100449.17
2022-12-28T02:20:42.494Z,100450.19
2022-12-28T02:25:58.053Z,100451.58
2022-12-28T02:31:15.859Z,100438.17
2022-12-28T02:36:26.740Z,100435.58
2022-12-28T02:41:31.672Z,100429.16
2022-12-28T02:46:38.270Z,100429.97
2022-12-28T02:51:43.826Z,100419.07
2022-12-28T02:56:56.408Z,100414.71
2022-12-28T03:02:01.230Z,100412.61
2022-12-28T03:07:09.912Z,100407.60
2022-12-28T03:12:23.497Z,100414.60
2022-12-28T03:17:32.229Z,100419.52
2022-12-28T03:22:41.126Z,100415.57
2022-12-28T03:27:48.797Z,100417.02
2022-12-28T03:32:51.708Z,100414.54
2022-12-28T03:38:01.044Z,100404.32
2022-12-28T03:43:15.228Z,100406.96
2022-12-28T03:48:18.511Z,100411.30
2022-12-28T03:53:26.981Z,100405.84
2022-12-28T03:58:30.032Z,100407.40
2022-12-28T04:03:33.200Z,100402.42
2022-12-28T04:08:35.918Z,100393.15
2022-12-28T04:13:38.839Z,100391.27
2022-12-28T04:18:42.373Z,100384.39
2022-12-28T04:23:45.116Z,100387.14
2022-12-28T04:28:47.855Z,100389.02
2022-12-28T04:33:50.491Z,100386.09
2022-12-28T04:38:53.393Z,100377.84
2022-12-28T04:43:56.270Z,100371.98
2022-12-28T04:49:00.849Z,100374.58
2022-12-28T04:54:03.678Z,100371.81
2022-12-28T04:59:06.715Z,100367.88
2022-12-28T05:04:09.609Z,100364.60
2022-12-28T05:09:12.250Z,100364.27
2022-12-28T05:14:15.058Z,100369.95
2022-12-28T05:19:18.242Z,100371.85
2022-12-28T05:24:20.974Z,100361.70
2022-12-28T05:29:23.629Z,100362.05
2022-12-28T05:34:26.251Z,100354.48
2022-12-28T05:39:29.279Z,100355.16
2022-12-28T05:44:32.174Z,100340.73
2022-12-28T05:49:34.852Z,100325.09
2022-12-28T05:54:37.722Z,100306.87
2022-12-28T05:59:40.412Z,100308.09
2022-12-28T06:04:43.076Z,100301.20
2022-12-28T06:09:45.787Z,100302.92
2022-12-28T06:14:48.433Z,100312.38
2022-12-28T06:19:51.095Z,100304.30
2022-12-28T06:24:53.852Z,100283.15
2022-12-28T06:29:56.455Z,100271.46
2022-12-28T06:34:59.172Z,100267.00
2022-12-28T06:40:01.924Z,100273.88
2022-12-28T06:45:05.518Z,100264.59
2022-12-28T06:50:09.206Z,100258.05
2022-12-28T06:55:11.903Z,100250.31
2022-12-28T07:00:14.901Z,100245.86
2022-12-28T07:05:17.555Z,100245.16
2022-12-28T07:10:20.273Z,100240.86
2022-12-28T07:15:22.871Z,100233.30
2022-12-28T07:20:25.526Z,100241.20
2022-12-28T07:25:28.427Z,100231.21
2022-12-28T07:30:31.526Z,100234.30
2022-12-28T07:35:34.199Z,100234.80
2022-12-28T07:40:36.791Z,100240.30
2022-12-28T07:45:39.493Z,100240.27
2022-12-28T07:50:42.285Z,100231.14
2022-12-28T07:55:44.905Z,100219.25
2022-12-28T08:00:47.561Z,100204.59
2022-12-28T08:05:50.316Z,100199.38
2022-12-28T08:10:52.929Z,100194.00
2022-12-28T08:15:55.640Z,100203.13
2022-12-28T08:21:05.318Z,100219.84
2022-12-28T08:26:10.819Z,100201.73
2022-12-28T08:31:16.467Z,100189.49
2022-12-28T08:36:19.193Z,100184.81
2022-12-28T08:41:24.023Z,100186.98
2022-12-28T08:46:29.866Z,100186.92
2022-12-28T08:51:39.743Z,100191.52
2022-12-28T08:56:44.159Z,100176.48
2022-12-28T09:01:47.625Z,100162.91
2022-12-28T09:06:50.703Z,100152.64
2022-12-28T09:11:53.416Z,100153.95
2022-12-28T09:16:56.223Z,100149.07
2022-12-28T09:21:59.062Z,100142.97
2022-12-28T09:27:01.708Z,100138.23
2022-12-28T09:32:04.536Z,100138.55
2022-12-28T09:37:08.370Z,100136.00
2022-12-28T09:42:18.414Z,100133.21
2022-12-28T09:47:27.639Z,100126.42
2022-12-28T09:52:34.269Z,100119.77
2022-12-28T09:57:42.182Z,100111.42
2022-12-28T10:02:51.311Z,100107.44
2022-12-28T10:07:57.477Z,100096.24
2022-12-28T10:13:45.416Z,100090.79
2022-12-28T10:18:39.625Z,100081.81
2022-12-28T10:24:04.707Z,100055.17
2022-12-28T10:29:15.730Z,100054.50
2022-12-28T10:34:22.487Z,100058.35
2022-12-28T10:39:28.872Z,100039.39
2022-12-28T10:44:42.072Z,100037.71
2022-12-28T10:50:02.810Z,100021.73
2022-12-28T10:55:33.918Z,100009.68
2022-12-28T11:00:36.876Z,99994.13
2022-12-28T11:05:39.730Z,99969.55
2022-12-28T11:10:42.509Z,99956.55
2022-12-28T11:15:45.741Z,99949.67
2022-12-28T11:20:51.280Z,99938.02
2022-12-28T11:25:53.984Z,99925.63
2022-12-28T11:30:57.719Z,99905.67
2022-12-28T11:36:04.495Z,99899.52
2022-12-28T11:41:34.114Z,99907.91
2022-12-28T11:46:39.038Z,99900.56
2022-12-28T11:51:41.649Z,99890.04
2022-12-28T11:56:44.233Z,99882.26
2022-12-28T12:01:47.777Z,99883.68
2022-12-28T12:06:50.355Z,99870.85
2022-12-28T12:11:54.018Z,99864.73
2022-12-28T12:17:03.293Z,99856.70
2022-12-28T12:31:43.272Z,99846.27
2022-12-28T12:36:50.929Z,99837.92
2022-12-28T12:41:56.398Z,99832.11
2022-12-28T12:47:06.175Z,99835.98
2022-12-28T12:52:12.823Z,99828.09
2022-12-28T12:57:23.224Z,99810.77
2022-12-28T13:02:29.036Z,99808.21
2022-12-28T13:07:32.740Z,99800.24
2022-12-28T13:12:36.267Z,99796.20
2022-12-28T13:17:38.923Z,99790.06
2022-12-28T13:22:42.398Z,99781.54
2022-12-28T13:27:45.144Z,99775.90
2022-12-28T13:33:00.685Z,99772.16
2022-12-28T13:38:07.948Z,99770.58
2022-12-28T13:43:13.440Z,99771.08
2022-12-28T13:48:16.292Z,99772.03
2022-12-28T13:53:25.346Z,99775.09
2022-12-28T13:58:32.154Z,99763.86
2022-12-28T14:03:40.672Z,99757.73
2022-12-28T14:08:47.211Z,99743.70
2022-12-28T14:13:50.675Z,99750.74
2022-12-28T14:18:54.054Z,99746.40
2022-12-28T14:24:04.479Z,99740.59
2022-12-28T14:29:15.864Z,99738.07
2022-12-28T14:34:24.382Z,99732.42
2022-12-28T14:39:29.977Z,99720.38
2022-12-28T14:44:40.766Z,99724.48
2022-12-28T14:49:44.187Z,99713.96
2022-12-28T14:54:51.352Z,99709.80
2022-12-28T15:00:01.055Z,99706.98
2022-12-28T15:05:04.571Z,99692.06
2022-12-28T15:10:08.000Z,99692.00
2022-12-28T15:15:11.327Z,99691.14
2022-12-28T15:20:15.369Z,99697.23
2022-12-28T15:25:18.044Z,99698.07
2022-12-28T15:30:25.766Z,99685.93
2022-12-28T15:35:32.233Z,99691.80
2022-12-28T15:40:35.130Z,99685.06
2022-12-28T15:45:37.860Z,99675.21
2022-12-28T15:50:40.476Z,99666.91
2022-12-28T15:55:43.762Z,99668.11
2022-12-28T16:00:47.833Z,99666.90
2022-12-28T16:05:50.800Z,99659.14
2022-12-28T16:10:53.602Z,99659.42
2022-12-28T16:15:56.435Z,99656.41
2022-12-28T16:21:03.476Z,99656.36
2022-12-28T16:26:07.555Z,99655.09
2022-12-28T16:31:25.201Z,99648.81
2022-12-28T16:36:29.023Z,99641.48
2022-12-28T16:41:36.644Z,99636.80
2022-12-28T16:46:40.517Z,99631.48
2022-12-28T16:51:45.377Z,99636.31
2022-12-28T16:56:48.931Z,99631.27
2022-12-28T17:01:53.536Z,99628.94
2022-12-28T17:06:56.395Z,99628.71
2022-12-28T17:11:59.027Z,99626.38
2022-12-28T17:17:02.104Z,99620.23
2022-12-28T17:22:05.838Z,99623.58
2022-12-28T17:27:11.906Z,99622.30
2022-12-28T17:32:18.296Z,99617.98
2022-12-28T17:37:21.012Z,99609.77
2022-12-28T17:42:23.742Z,99605.88
2022-12-28T17:47:27.129Z,99592.33
2022-12-28T17:52:29.803Z,99592.45
2022-12-28T17:57:38.300Z,99594.63
2022-12-28T18:02:44.516Z,99591.55
2022-12-28T18:07:47.583Z,99583.33
2022-12-28T18:12:50.600Z,99579.98
2022-12-28T18:17:53.305Z,99579.27
2022-12-28T18:22:56.095Z,99583.02
2022-12-28T18:27:58.973Z,99581.79
2022-12-28T18:33:01.618Z,99578.27
2022-12-28T18:38:04.319Z,99575.06
2022-12-28T18:43:07.081Z,99574.13
2022-12-28T18:48:09.774Z,99564.44
2022-12-28T18:53:12.437Z,99557.72
2022-12-28T18:58:15.073Z,99557.69
2022-12-28T19:03:18.158Z,99553.89
2022-12-28T19:08:21.028Z,99555.02
2022-12-28T19:13:23.737Z,99550.21
2022-12-28T19:18:26.741Z,99544.16
2022-12-28T19:23:29.384Z,99542.70
2022-12-28T19:28:32.089Z,99545.22
2022-12-28T19:33:35.016Z,99545.34
2022-12-28T19:38:37.857Z,99547.16
2022-12-28T19:43:41.629Z,99547.02
2022-12-28T19:48:44.979Z,99552.17
2022-12-28T19:53:47.677Z,99548.73
2022-12-28T19:58:50.400Z,99549.42
2022-12-28T20:03:54.578Z,99551.15
2022-12-28T20:08:59.792Z,99553.30
2022-12-28T20:14:04.342Z,99555.33
2022-12-28T20:19:08.752Z,99554.50
2022-12-28T20:24:12.921Z,99549.71
2022-12-28T20:29:16.463Z,99543.04
2022-12-28T20:34:19.501Z,99547.96
2022-12-28T20:39:22.140Z,99545.09
2022-12-28T20:44:28.924Z,99548.61
2022-12-28T20:49:32.126Z,99545.41
2022-12-28T20:54:34.985Z,99542.33
2022-12-28T20:59:38.076Z,99545.20
2022-12-28T21:04:41.944Z,99545.16
2022-12-28T21:09:45.405Z,99549.61
2022-12-28T21:14:48.017Z,99552.65
2022-12-28T21:19:51.115Z,99545.08
2022-12-28T21:24:53.753Z,99550.98
2022-12-28T21:29:56.403Z,99554.35
2022-12-28T21:34:59.059Z,99557.45
2022-12-28T21:40:05.227Z,99549.55
2022-12-28T21:45:08.557Z,99548.86
2022-12-28T21:50:11.535Z,99539.30
2022-12-28T21:55:17.412Z,99530.73
2022-12-28T22:00:23.885Z,99537.58
2022-12-28T22:05:29.481Z,99534.79
2022-12-28T22:10:35.235Z,99537.91
2022-12-28T22:15:40.760Z,99535.11
2022-12-28T22:20:44.170Z,99538.80
2022-12-28T22:25:46.914Z,99540.45
2022-12-28T22:30:49.555Z,99538.84
2022-12-28T22:35:52.279Z,99532.13
2022-12-28T22:40:58.662Z,99522.00
2022-12-28T22:46:05.345Z,99519.36
2022-12-28T22:51:11.421Z,99508.25
2022-12-28T22:57:47.134Z,99505.71
2022-12-28T23:02:50.159Z,99501.73
2022-12-28T23:07:53.131Z,99494.79
2022-12-28T23:12:55.773Z,99490.84
2022-12-28T23:18:18.336Z,99487.29
2022-12-28T23:23:23.951Z,99478.36
2022-12-28T23:28:26.735Z,99477.02
2022-12-28T23:33:29.364Z,99475.64
2022-12-28T23:38:32.910Z,99480.40
2022-12-28T23:43:35.804Z,99472.81
2022-12-28T23:48:38.490Z,99458.55
2022-12-28T23:53:41.314Z,99457.02
2022-12-28T23:58:43.914Z,99456.14
